Time;durP1;ratioP1;P1;durP2;ratioP2;P2;SDS_P1;SDS_P2;PMS_P1;PMS_P2;Temp;Humidity;BMP_temperature;BMP_pressure;BME280_temperature;BME280_humidity;BME280_pressure;Samples;Min_cycle;Max_cycle;Signal;HPM_P1;HPM_P2
2022/12/19 00:08:01;;;;;;;89.68;35.83;;;;;;;-3.77;100.00;101413.84;21119204;28;20047;-74
2022/12/19 00:18:17;;;;;;;81.82;35.63;;;;;;;-3.78;100.00;101389.91;21116862;28;20198;-75
2022/12/19 00:28:19;;;;;;;90.43;37.03;;;;;;;-3.65;100.00;101373.56;21119964;28;20504;-75
2022/12/19 00:38:21;;;;;;;93.25;38.45;;;;;;;-3.67;100.00;101380.28;21117707;28;20485;-74
2022/12/19 00:48:22;;;;;;;88.18;35.08;;;;;;;-3.62;100.00;101373.75;21117490;28;20060;-75
2022/12/19 00:58:24;;;;;;;95.22;38.47;;;;;;;-3.44;100.00;101368.81;21116943;28;20132;-76
2022/12/19 01:08:25;;;;;;;85.60;35.47;;;;;;;-3.40;100.00;101375.88;21079645;28;20059;-76
2022/12/19 01:18:27;;;;;;;90.50;36.70;;;;;;;-3.36;100.00;101367.53;21075146;28;20549;-77
2022/12/19 01:28:28;;;;;;;94.20;36.85;;;;;;;-3.33;100.00;101356.59;21068587;28;20052;-75
2022/12/19 01:38:30;;;;;;;93.43;37.53;;;;;;;-3.34;100.00;101334.34;21071288;28;20052;-76
2022/12/19 01:48:31;;;;;;;90.20;37.15;;;;;;;-3.14;100.00;101318.38;21071825;28;20066;-75
2022/12/19 01:58:32;;;;;;;89.07;36.75;;;;;;;-3.09;100.00;101316.94;21070968;28;20051;-76
2022/12/19 02:08:34;;;;;;;88.30;38.17;;;;;;;-3.07;100.00;101309.34;21068863;28;20059;-76
2022/12/19 02:18:35;;;;;;;87.45;35.05;;;;;;;-3.07;100.00;101309.34;21068422;28;20056;-77
2022/12/19 02:28:36;;;;;;;85.13;35.60;;;;;;;-3.08;100.00;101317.81;21068688;28;20052;-75
2022/12/19 02:38:37;;;;;;;91.88;36.28;;;;;;;-3.05;100.00;101318.00;21167369;27;20572;-75
2022/12/19 02:48:39;;;;;;;96.15;38.33;;;;;;;-3.03;100.00;101316.38;21192584;27;20055;-75
2022/12/19 02:58:40;;;;;;;96.85;37.28;;;;;;;-2.88;100.00;101318.06;21192928;28;20128;-75
2022/12/19 03:08:43;;;;;;;92.97;39.50;;;;;;;-2.81;100.00;101316.75;21080870;28;20055;-76
2022/12/19 03:18:45;;;;;;;97.82;39.05;;;;;;;-2.76;100.00;101310.16;21066385;28;20128;-76
2022/12/19 03:28:46;;;;;;;83.47;35.97;;;;;;;-2.78;100.00;101314.31;21071972;28;20102;-74
2022/12/19 03:38:47;;;;;;;86.95;37.80;;;;;;;-2.71;100.00;101300.16;21080037;28;20557;-75
2022/12/19 03:48:48;;;;;;;93.97;36.72;;;;;;;-2.66;100.00;101303.84;21080595;28;20056;-75
2022/12/19 03:58:50;;;;;;;89.82;38.25;;;;;;;-2.54;100.00;101299.34;21079786;28;20154;-75
2022/12/19 04:08:51;;;;;;;94.53;40.03;;;;;;;-2.59;100.00;101308.47;21179571;27;20101;-75
2022/12/19 04:18:52;;;;;;;93.25;36.85;;;;;;;-2.60;100.00;101299.91;21201774;27;20051;-75
2022/12/19 04:28:53;;;;;;;94.90;37.47;;;;;;;-2.55;100.00;101310.41;21203063;27;20099;-76
2022/12/19 04:38:55;;;;;;;90.75;37.92;;;;;;;-2.50;100.00;101293.56;21088721;27;20105;-74
2022/12/19 04:48:56;;;;;;;91.90;37.95;;;;;;;-2.50;100.00;101296.13;21075597;28;20553;-74
2022/12/19 04:58:58;;;;;;;93.97;40.38;;;;;;;-2.30;100.00;101268.03;21073294;28;20491;-77
2022/12/19 05:08:59;;;;;;;91.30;36.38;;;;;;;-2.24;100.00;101247.84;21187767;27;20047;-77
2022/12/19 05:19:00;;;;;;;86.05;35.88;;;;;;;-2.21;100.00;101248.84;21199735;27;20279;-77
2022/12/19 05:29:02;;;;;;;88.88;35.95;;;;;;;-2.22;100.00;101253.91;21198159;27;20055;-76
2022/12/19 05:39:03;;;;;;;101.40;42.53;;;;;;;-2.29;100.00;101259.56;21194012;27;20052;-76
2022/12/19 05:49:04;;;;;;;94.22;38.33;;;;;;;-2.32;100.00;101266.28;21190965;27;20056;-76
2022/12/19 05:59:06;;;;;;;96.85;40.90;;;;;;;-2.34;100.00;101252.53;21196679;27;20052;-75
2022/12/19 06:09:07;;;;;;;104.13;43.97;;;;;;;-2.28;100.00;101238.25;21195592;27;20086;-75
2022/12/19 06:19:08;;;;;;;82.93;35.80;;;;;;;-2.26;100.00;101264.81;21192456;27;20079;-75
2022/12/19 06:29:10;;;;;;;90.68;37.38;;;;;;;-2.16;100.00;101249.97;21193879;27;20059;-75
2022/12/19 06:39:11;;;;;;;94.90;38.40;;;;;;;-1.98;100.00;101242.28;21078605;27;20411;-75
2022/12/19 06:49:12;;;;;;;87.97;38.10;;;;;;;-1.93;100.00;101227.97;21067421;28;20059;-76
2022/12/19 06:59:14;;;;;;;89.28;37.17;;;;;;;-1.89;100.00;101237.59;21066206;28;20113;-75
2022/12/19 07:09:17;;;;;;;82.32;35.38;;;;;;;-1.88;100.00;101229.09;21067248;23;20060;-84
2022/12/19 07:19:18;;;;;;;85.72;38.45;;;;;;;-1.74;100.00;101226.28;20968225;28;20128;-85
2022/12/19 07:29:19;;;;;;;84.80;35.83;;;;;;;-1.75;100.00;101234.81;20993796;28;20115;-85
2022/12/19 07:39:21;;;;;;;88.10;39.17;;;;;;;-1.57;100.00;101251.09;21001416;28;20076;-84
2022/12/19 07:49:25;;;;;;;100.38;45.53;;;;;;;-1.58;100.00;101260.47;20962306;28;20053;-85
2022/12/19 07:59:27;;;;;;;90.70;41.28;;;;;;;-1.48;100.00;101269.50;20959673;28;20083;-85
2022/12/19 08:09:35;;;;;;;109.90;49.55;;;;;;;-1.20;100.00;101257.91;20947944;28;20051;-85
2022/12/19 08:19:37;;;;;;;89.50;43.50;;;;;;;-1.13;100.00;101249.66;20961790;28;20053;-83
2022/12/19 08:29:38;;;;;;;96.63;45.85;;;;;;;-1.03;100.00;101241.56;20980584;28;20045;-85
2022/12/19 08:39:39;;;;;;;96.00;45.10;;;;;;;-0.92;100.00;101250.59;20910282;28;20052;-84
2022/12/19 08:49:41;;;;;;;99.00;44.60;;;;;;;-0.78;100.00;101241.81;20904626;28;20485;-85
2022/12/19 08:59:42;;;;;;;120.00;53.08;;;;;;;-0.61;100.00;101215.97;20902002;28;20063;-83
2022/12/19 09:09:45;;;;;;;97.50;45.85;;;;;;;-0.44;100.00;101214.06;20992571;28;20045;-83
2022/12/19 09:19:46;;;;;;;101.03;46.83;;;;;;;-0.27;100.00;101208.81;20966611;28;20463;-83
2022/12/19 09:29:48;;;;;;;95.60;43.65;;;;;;;-0.14;100.00;101199.91;20938327;28;20045;-83
2022/12/19 09:39:49;;;;;;;115.35;53.30;;;;;;;0.16;100.00;101201.94;20934781;28;20181;-83
2022/12/19 09:49:58;;;;;;;100.65;48.15;;;;;;;0.25;100.00;101190.31;20931935;28;20111;-83
2022/12/19 10:00:00;;;;;;;90.35;42.28;;;;;;;0.50;100.00;101183.50;20996865;28;20056;-81
2022/12/19 10:10:01;;;;;;;95.43;44.17;;;;;;;0.64;100.00;101172.00;20950596;28;20382;-80
2022/12/19 10:20:23;;;;;;;97.28;45.63;;;;;;;0.75;100.00;101162.97;20955503;28;20071;-80
2022/12/19 10:30:24;;;;;;;79.30;38.65;;;;;;;0.86;100.00;101168.50;20989184;28;20049;-80
2022/12/19 10:40:27;;;;;;;104.47;49.03;;;;;;;0.80;100.00;101151.94;20990103;28;20052;-81
2022/12/19 10:50:29;;;;;;;84.40;39.97;;;;;;;1.03;100.00;101149.34;20977241;28;20049;-80
2022/12/19 11:00:31;;;;;;;77.93;34.72;;;;;;;1.00;100.00;101133.75;20962126;23;20068;-78
2022/12/19 11:10:33;;;;;;;76.63;37.42;;;;;;;1.04;100.00;101114.13;21034412;28;20425;-77
2022/12/19 11:20:54;;;;;;;78.22;39.50;;;;;;;1.05;100.00;101121.03;21029606;28;20044;-77
2022/12/19 11:31:16;;;;;;;82.93;40.22;;;;;;;1.19;100.00;101087.97;21022767;28;20087;-75
2022/12/19 11:41:37;;;;;;;87.63;42.53;;;;;;;1.33;100.00;101091.00;21026303;28;20055;-77
2022/12/19 11:51:38;;;;;;;81.50;39.33;;;;;;;1.40;100.00;101062.00;21037312;28;20051;-77
2022/12/19 12:01:40;;;;;;;76.53;37.22;;;;;;;1.42;100.00;101063.78;21041631;28;20140;-76
2022/12/19 12:11:42;;;;;;;74.00;36.88;;;;;;;1.52;100.00;101041.75;21037450;28;20244;-75
2022/12/19 12:22:03;;;;;;;77.63;38.60;;;;;;;1.74;100.00;101043.28;21033925;28;20064;-77
2022/12/19 12:32:24;;;;;;;69.53;34.97;;;;;;;1.94;100.00;101025.81;21035370;28;20083;-75
2022/12/19 12:42:46;;;;;;;76.90;37.10;;;;;;;1.99;100.00;101024.22;21035116;28;20659;-75
2022/12/19 12:52:47;;;;;;;67.72;34.55;;;;;;;1.95;100.00;101032.72;20992186;28;20057;-76
2022/12/19 13:02:48;;;;;;;66.10;33.40;;;;;;;2.01;100.00;101043.22;21014443;28;20079;-76
2022/12/19 13:12:59;;;;;;;65.75;33.30;;;;;;;1.93;100.00;101008.56;21030205;28;20080;-76
2022/12/19 13:23:00;;;;;;;69.60;34.95;;;;;;;1.97;100.00;101031.06;21024146;28;20048;-75
2022/12/19 13:33:01;;;;;;;71.53;35.17;;;;;;;2.02;100.00;101035.53;21032375;28;20110;-74
2022/12/19 13:53:24;;;;;;;73.15;35.80;;;;;;;1.91;100.00;101033.44;21029451;28;20066;-76
2022/12/19 14:03:25;;;;;;;81.05;43.25;;;;;;;1.79;100.00;101031.38;21027361;28;20527;-76
2022/12/19 14:24:03;;;;;;;75.20;36.58;;;;;;;1.68;100.00;101027.63;21026461;28;20048;-75
2022/12/19 14:34:04;;;;;;;78.90;39.70;;;;;;;1.64;100.00;101026.66;21025582;28;20052;-76
2022/12/19 14:44:26;;;;;;;79.25;39.67;;;;;;;1.47;100.00;101018.38;21026616;28;20117;-76
2022/12/19 14:54:47;;;;;;;78.90;39.38;;;;;;;1.36;100.00;101008.56;21026932;28;20097;-75
2022/12/19 15:05:08;;;;;;;83.57;41.78;;;;;;;1.24;100.00;101025.38;21016666;28;20137;-75
2022/12/19 15:15:10;;;;;;;85.90;41.72;;;;;;;0.99;100.00;101012.53;21025966;28;20074;-75
2022/12/19 15:25:11;;;;;;;83.82;42.38;;;;;;;0.73;100.00;100986.78;21018185;28;20051;-75
2022/12/19 15:35:32;;;;;;;94.78;47.33;;;;;;;0.73;100.00;100989.34;21038460;28;20068;-74
2022/12/19 15:45:34;;;;;;;95.10;48.15;;;;;;;0.70;100.00;100984.09;21036139;28;20079;-74
2022/12/19 15:55:38;;;;;;;102.15;52.15;;;;;;;0.53;100.00;100985.25;21035877;28;20146;-73
2022/12/19 16:05:40;;;;;;;101.22;49.03;;;;;;;0.39;100.00;100991.63;21036568;28;20389;-73
2022/12/19 16:15:41;;;;;;;95.38;47.40;;;;;;;0.19;100.00;100976.34;21035937;28;20550;-74
2022/12/19 16:25:42;;;;;;;93.38;43.28;;;;;;;0.04;100.00;100983.50;21033462;28;20125;-73
2022/12/19 16:35:44;;;;;;;95.60;42.80;;;;;;;-0.01;100.00;100983.31;21027997;28;20270;-72
2022/12/19 16:46:05;;;;;;;98.15;47.00;;;;;;;-0.01;100.00;100974.72;21037785;28;20086;-70
2022/12/19 16:56:06;;;;;;;116.63;56.50;;;;;;;-0.01;100.00;100990.16;21037006;28;20075;-71
2022/12/19 17:06:08;;;;;;;114.90;54.13;;;;;;;0.04;100.00;100973.19;21041825;28;20056;-71
2022/12/19 17:16:09;;;;;;;131.13;60.45;;;;;;;0.01;100.00;100967.09;21020477;28;20053;-72
2022/12/19 17:26:11;;;;;;;146.27;69.32;;;;;;;-0.02;100.00;100978.13;21021199;28;20056;-71
2022/12/19 17:36:18;;;;;;;164.68;81.95;;;;;;;0.03;100.00;100945.72;21027839;28;20066;-72
2022/12/19 17:46:26;;;;;;;128.60;62.67;;;;;;;0.11;100.00;100954.59;21020194;28;20509;-72
2022/12/19 17:56:27;;;;;;;117.28;55.97;;;;;;;0.08;100.00;100964.75;21020358;28;20559;-72
2022/12/19 18:06:28;;;;;;;120.35;57.35;;;;;;;0.01;100.00;100952.50;21018689;28;20052;-72
2022/12/19 18:16:30;;;;;;;119.07;56.20;;;;;;;-0.01;100.00;100959.28;21028115;28;20052;-72
2022/12/19 18:26:31;;;;;;;113.60;54.50;;;;;;;0.07;100.00;100945.00;21021519;28;20047;-72
2022/12/19 18:36:32;;;;;;;113.05;53.00;;;;;;;0.20;100.00;100939.47;21020466;28;20418;-70
2022/12/19 18:46:34;;;;;;;120.65;57.80;;;;;;;0.32;100.00;100953.56;21018182;28;20056;-70
2022/12/19 18:56:36;;;;;;;113.22;54.35;;;;;;;0.27;100.00;100949.97;20980304;28;20098;-72
2022/12/19 19:06:37;;;;;;;106.90;52.78;;;;;;;0.23;100.00;100947.28;20931978;28;20048;-72
2022/12/19 19:16:40;;;;;;;120.40;58.78;;;;;;;0.19;100.00;100941.97;20927957;28;20115;-73
2022/12/19 19:26:43;;;;;;;115.75;56.75;;;;;;;0.22;100.00;100937.81;20927028;28;20135;-73
2022/12/19 19:36:44;;;;;;;118.57;57.28;;;;;;;0.15;100.00;100935.84;20932360;28;20048;-73
2022/12/19 19:46:45;;;;;;;113.85;54.55;;;;;;;0.02;100.00;100933.66;20930361;28;20467;-73
2022/12/19 19:56:47;;;;;;;104.65;48.63;;;;;;;0.04;100.00;100932.00;20934385;28;20052;-72
2022/12/19 20:06:49;;;;;;;132.63;61.80;;;;;;;0.16;100.00;100935.03;20934089;28;20463;-73
2022/12/19 20:16:50;;;;;;;98.50;47.75;;;;;;;0.03;100.00;100930.25;20949023;28;20699;-73
2022/12/19 20:26:51;;;;;;;141.80;67.68;;;;;;;-0.02;100.00;100934.38;20950191;28;20172;-73
2022/12/19 20:36:53;;;;;;;115.00;54.58;;;;;;;-0.10;100.00;100944.38;20938868;28;20063;-72
2022/12/19 20:46:54;;;;;;;118.50;60.13;;;;;;;0.05;100.00;100943.16;20946643;28;20056;-75
2022/12/19 20:56:55;;;;;;;122.38;57.42;;;;;;;0.08;100.00;100933.88;20967368;28;20057;-75
2022/12/19 21:06:57;;;;;;;107.78;53.33;;;;;;;0.03;100.00;100934.53;21027760;28;20059;-75
2022/12/19 21:16:58;;;;;;;112.82;55.30;;;;;;;0.02;100.00;100933.66;21027717;28;20421;-74
2022/12/19 21:27:00;;;;;;;106.50;52.75;;;;;;;0.10;100.00;100929.66;21026964;28;20058;-74
2022/12/19 21:37:01;;;;;;;98.10;49.45;;;;;;;0.19;100.00;100931.66;21022363;28;20049;-74
2022/12/19 21:47:03;;;;;;;100.55;48.97;;;;;;;0.25;100.00;100926.75;21021494;28;20052;-73
2022/12/19 21:57:04;;;;;;;105.38;52.22;;;;;;;0.37;100.00;100939.16;20999184;28;20052;-75
2022/12/19 22:07:05;;;;;;;100.53;48.80;;;;;;;0.53;100.00;100920.81;20934350;28;20544;-74
2022/12/19 22:17:07;;;;;;;96.70;48.00;;;;;;;0.72;100.00;100930.91;20939228;28;20060;-74
2022/12/19 22:27:08;;;;;;;100.03;49.25;;;;;;;0.79;100.00;100928.53;20935800;28;20501;-74
2022/12/19 22:37:09;;;;;;;99.30;49.20;;;;;;;0.90;100.00;100920.28;20931872;28;20053;-74
2022/12/19 22:47:11;;;;;;;92.45;47.70;;;;;;;0.93;100.00;100910.09;20935546;28;20056;-74
2022/12/19 22:57:12;;;;;;;90.35;46.28;;;;;;;0.98;100.00;100911.09;20933816;28;20068;-74
2022/12/19 23:07:14;;;;;;;86.60;45.22;;;;;;;1.13;100.00;100923.59;20937597;28;20057;-74
2022/12/19 23:17:15;;;;;;;89.35;42.63;;;;;;;1.26;100.00;100915.41;20902324;28;20059;-73
2022/12/19 23:27:17;;;;;;;73.18;36.83;;;;;;;1.44;100.00;100901.31;20940845;28;20059;-74
2022/12/19 23:37:18;;;;;;;60.65;33.58;;;;;;;1.60;100.00;100889.72;20990720;23;20075;-73
2022/12/19 23:47:19;;;;;;;75.90;36.70;;;;;;;1.66;100.00;100887.28;21029620;28;20105;-72
2022/12/19 23:57:20;;;;;;;69.18;37.00;;;;;;;1.60;100.00;100864.78;21038794;28;20419;-73
